Disclaimer

Please do not use the information listed here in-flight or in-navigation, as they are not provided to us by the airports but are provided by volunteers, so they might be outdated.

Search


Regions


Airport information page

Radio informations:
NOVOSIBIRSK TWR - 118.5 MHz
NOVOSIBIRSK VOLM - 128.3 MHz
NOVOSIBIRSK TAXI - 121.7 MHz
NOVOSIBIRSK ATIS - 127.4 MHz
NOVOSIBIRSK APP - 127.5 MHz

Airport informations:
Latitude: 55° 00' 45.44" N
Longitude: 082° 39' 02.36" E
Elevation: 365 feet - 111 meters
Operating hours: 24 hour operations
Operating agency: Civil government, landing fees and diplomatic clearance may be required
Timezone: UTC+6(+7DT) - Last Sunday in March to last Sunday in October
Fuel: Jet A1, without icing nhibitor.

Runway information:
07/25 - 11811 x 197 feet< - >3600 x 60 meters

Recent METARs:
UNNT 122030Z 24007MPS 7000 -SN DRSN OVC027 M08/M11 Q1025 R25/490150 R16/450540 NOSIG RMK QFE758/1011
UNNT 122100Z 24007MPS 5000 -SN DRSN OVC028 M08/M11 Q1024 R25/490150 R16/450540 NOSIG RMK QFE758/1011
UNNT 122130Z 24007MPS 8000 -SN DRSN OVC026 M08/M11 Q1025 R25/490150 R16/450540 NOSIG RMK QFE758/1011

Airport on the map: